YMEY weather

Mullaley Airport
New South Wales, Australia

Public forecast

Using degrees Celsius for public forecast. Weather courtesy of forecast.io.

Closest aviation weather report (METAR) to Mullaley Airport

Closest report is Coonabarabran Airport, 36.2 nm (67.0 km) WSW. Retrieved 2019/10/16 10:00 UTC (30 minutes ago):

YCBB 161000Z AUTO 19009KT 9999 // ////// 20/11 Q1012

Closest aviation forecast (TAF) to Mullaley Airport

Forecast is more than 12 hours old.

Closest forecast is Tamworth Airport, 47.8 nm (88.6 km) E. Retrieved 2019/10/15 18:36 UTC (16 hours ago):

TAF YSTW 151651Z 1518/1612 08005KT CAVOK FM152200 33010KT CAVOK FM160300 33015G25KT 9999 -SHRA NSC FM160800 06012KT 9999 -SHRA NSC PROB30 INTER 1604/1609 VRB18G30KT 2000 TSRA SCT015 SCT080CB